sensor_id;sensor_type;location;lat;lon;timestamp;P1;durP1;ratioP1;P2;durP2;ratioP2
66587;SDS011;53446;50.076;8.198;2024-03-08T00:01:10;21.42;;;12.13;;
66587;SDS011;53446;50.076;8.198;2024-03-08T00:03:10;27.85;;;13.10;;
66587;SDS011;53446;50.076;8.198;2024-03-08T00:05:10;22.73;;;12.43;;
66587;SDS011;53446;50.076;8.198;2024-03-08T00:07:11;21.75;;;11.23;;
66587;SDS011;53446;50.076;8.198;2024-03-08T00:09:13;24.45;;;12.32;;
66587;SDS011;53446;50.076;8.198;2024-03-08T00:11:14;23.63;;;12.60;;
66587;SDS011;53446;50.076;8.198;2024-03-08T00:13:14;23.80;;;11.83;;
66587;SDS011;53446;50.076;8.198;2024-03-08T00:15:15;24.80;;;12.95;;
66587;SDS011;53446;50.076;8.198;2024-03-08T00:17:16;23.38;;;12.05;;
66587;SDS011;53446;50.076;8.198;2024-03-08T00:19:16;22.10;;;11.80;;
66587;SDS011;53446;50.076;8.198;2024-03-08T00:21:17;24.80;;;12.60;;
66587;SDS011;53446;50.076;8.198;2024-03-08T00:23:17;21.93;;;12.30;;
66587;SDS011;53446;50.076;8.198;2024-03-08T00:25:17;23.60;;;11.82;;
66587;SDS011;53446;50.076;8.198;2024-03-08T00:27:18;22.20;;;11.90;;
66587;SDS011;53446;50.076;8.198;2024-03-08T00:29:21;24.80;;;12.32;;
66587;SDS011;53446;50.076;8.198;2024-03-08T00:31:22;23.38;;;12.25;;
66587;SDS011;53446;50.076;8.198;2024-03-08T00:33:22;24.83;;;12.83;;
66587;SDS011;53446;50.076;8.198;2024-03-08T00:35:22;27.33;;;12.27;;
66587;SDS011;53446;50.076;8.198;2024-03-08T00:37:23;23.47;;;12.33;;
66587;SDS011;53446;50.076;8.198;2024-03-08T00:39:23;22.73;;;11.55;;
66587;SDS011;53446;50.076;8.198;2024-03-08T00:41:24;26.20;;;12.83;;
66587;SDS011;53446;50.076;8.198;2024-03-08T00:43:26;24.73;;;12.32;;
66587;SDS011;53446;50.076;8.198;2024-03-08T00:45:26;26.75;;;12.52;;
66587;SDS011;53446;50.076;8.198;2024-03-08T00:47:26;24.05;;;12.80;;
66587;SDS011;53446;50.076;8.198;2024-03-08T00:49:27;26.27;;;12.95;;
66587;SDS011;53446;50.076;8.198;2024-03-08T00:51:27;24.45;;;12.05;;
66587;SDS011;53446;50.076;8.198;2024-03-08T00:53:27;26.05;;;11.82;;
66587;SDS011;53446;50.076;8.198;2024-03-08T00:55:28;22.97;;;12.17;;
66587;SDS011;53446;50.076;8.198;2024-03-08T00:57:29;23.42;;;11.73;;
66587;SDS011;53446;50.076;8.198;2024-03-08T00:59:30;26.37;;;12.23;;
66587;SDS011;53446;50.076;8.198;2024-03-08T01:01:33;27.42;;;13.73;;
66587;SDS011;53446;50.076;8.198;2024-03-08T01:03:33;22.40;;;12.10;;
66587;SDS011;53446;50.076;8.198;2024-03-08T01:05:34;24.03;;;12.40;;
66587;SDS011;53446;50.076;8.198;2024-03-08T01:07:35;24.42;;;11.93;;
66587;SDS011;53446;50.076;8.198;2024-03-08T01:09:35;25.53;;;12.40;;
66587;SDS011;53446;50.076;8.198;2024-03-08T01:11:36;24.93;;;12.60;;
66587;SDS011;53446;50.076;8.198;2024-03-08T01:13:36;24.37;;;11.90;;
66587;SDS011;53446;50.076;8.198;2024-03-08T01:15:36;24.80;;;12.70;;
66587;SDS011;53446;50.076;8.198;2024-03-08T01:17:36;27.10;;;12.10;;
66587;SDS011;53446;50.076;8.198;2024-03-08T01:19:37;25.88;;;12.10;;
66587;SDS011;53446;50.076;8.198;2024-03-08T01:21:37;25.47;;;13.00;;
66587;SDS011;53446;50.076;8.198;2024-03-08T01:23:37;22.90;;;11.87;;
66587;SDS011;53446;50.076;8.198;2024-03-08T01:25:37;29.57;;;12.63;;
66587;SDS011;53446;50.076;8.198;2024-03-08T01:27:38;26.65;;;12.80;;
66587;SDS011;53446;50.076;8.198;2024-03-08T01:29:39;26.07;;;13.00;;
66587;SDS011;53446;50.076;8.198;2024-03-08T01:31:39;27.27;;;13.07;;
66587;SDS011;53446;50.076;8.198;2024-03-08T01:33:39;25.73;;;13.47;;
66587;SDS011;53446;50.076;8.198;2024-03-08T01:35:40;23.80;;;11.43;;
66587;SDS011;53446;50.076;8.198;2024-03-08T01:37:41;24.83;;;12.65;;
66587;SDS011;53446;50.076;8.198;2024-03-08T01:39:41;24.33;;;12.23;;
66587;SDS011;53446;50.076;8.198;2024-03-08T01:41:42;25.57;;;12.40;;
66587;SDS011;53446;50.076;8.198;2024-03-08T01:43:42;26.47;;;13.73;;
66587;SDS011;53446;50.076;8.198;2024-03-08T01:45:42;26.50;;;12.95;;
66587;SDS011;53446;50.076;8.198;2024-03-08T01:47:43;24.70;;;12.17;;
66587;SDS011;53446;50.076;8.198;2024-03-08T01:49:43;27.87;;;13.00;;
66587;SDS011;53446;50.076;8.198;2024-03-08T01:51:44;24.65;;;12.07;;
66587;SDS011;53446;50.076;8.198;2024-03-08T01:53:45;24.10;;;11.67;;
66587;SDS011;53446;50.076;8.198;2024-03-08T01:55:48;27.55;;;13.13;;
66587;SDS011;53446;50.076;8.198;2024-03-08T01:57:49;22.08;;;11.95;;
66587;SDS011;53446;50.076;8.198;2024-03-08T01:59:49;24.53;;;11.40;;
66587;SDS011;53446;50.076;8.198;2024-03-08T02:01:50;23.80;;;11.55;;
66587;SDS011;53446;50.076;8.198;2024-03-08T02:03:51;23.65;;;11.80;;
66587;SDS011;53446;50.076;8.198;2024-03-08T02:05:51;25.90;;;12.60;;
66587;SDS011;53446;50.076;8.198;2024-03-08T02:07:52;23.27;;;11.97;;
66587;SDS011;53446;50.076;8.198;2024-03-08T02:09:52;28.07;;;12.90;;
66587;SDS011;53446;50.076;8.198;2024-03-08T02:11:53;26.43;;;12.37;;
66587;SDS011;53446;50.076;8.198;2024-03-08T02:13:54;24.00;;;12.13;;
66587;SDS011;53446;50.076;8.198;2024-03-08T02:17:56;24.13;;;12.23;;
66587;SDS011;53446;50.076;8.198;2024-03-08T02:19:56;24.80;;;12.50;;
66587;SDS011;53446;50.076;8.198;2024-03-08T02:21:56;28.37;;;13.07;;
66587;SDS011;53446;50.076;8.198;2024-03-08T02:23:57;24.15;;;11.88;;
66587;SDS011;53446;50.076;8.198;2024-03-08T02:25:58;23.93;;;12.07;;
66587;SDS011;53446;50.076;8.198;2024-03-08T02:27:58;24.92;;;12.82;;
66587;SDS011;53446;50.076;8.198;2024-03-08T02:29:59;26.00;;;12.20;;
66587;SDS011;53446;50.076;8.198;2024-03-08T02:31:59;23.87;;;13.07;;
66587;SDS011;53446;50.076;8.198;2024-03-08T02:34:00;27.97;;;13.17;;
66587;SDS011;53446;50.076;8.198;2024-03-08T02:36:00;25.10;;;12.90;;
66587;SDS011;53446;50.076;8.198;2024-03-08T02:38:00;24.20;;;12.83;;
66587;SDS011;53446;50.076;8.198;2024-03-08T02:40:01;27.02;;;12.85;;
66587;SDS011;53446;50.076;8.198;2024-03-08T02:42:01;22.87;;;11.80;;
66587;SDS011;53446;50.076;8.198;2024-03-08T02:44:02;24.53;;;13.13;;
66587;SDS011;53446;50.076;8.198;2024-03-08T02:46:02;25.37;;;13.07;;
66587;SDS011;53446;50.076;8.198;2024-03-08T02:48:02;26.45;;;12.82;;
66587;SDS011;53446;50.076;8.198;2024-03-08T02:50:03;26.03;;;12.50;;
66587;SDS011;53446;50.076;8.198;2024-03-08T02:52:04;25.63;;;11.80;;
66587;SDS011;53446;50.076;8.198;2024-03-08T02:54:04;28.60;;;13.07;;
66587;SDS011;53446;50.076;8.198;2024-03-08T02:56:05;25.47;;;12.10;;
66587;SDS011;53446;50.076;8.198;2024-03-08T02:58:08;25.02;;;13.00;;
66587;SDS011;53446;50.076;8.198;2024-03-08T03:00:10;26.98;;;13.23;;
66587;SDS011;53446;50.076;8.198;2024-03-08T03:02:10;28.23;;;12.77;;
66587;SDS011;53446;50.076;8.198;2024-03-08T03:04:11;26.77;;;12.93;;
66587;SDS011;53446;50.076;8.198;2024-03-08T03:06:12;26.17;;;12.60;;
66587;SDS011;53446;50.076;8.198;2024-03-08T03:08:12;26.73;;;12.27;;
66587;SDS011;53446;50.076;8.198;2024-03-08T03:10:13;26.27;;;13.05;;
66587;SDS011;53446;50.076;8.198;2024-03-08T03:12:16;23.58;;;12.45;;
66587;SDS011;53446;50.076;8.198;2024-03-08T03:14:18;24.80;;;12.50;;
66587;SDS011;53446;50.076;8.198;2024-03-08T03:16:19;27.17;;;12.73;;
66587;SDS011;53446;50.076;8.198;2024-03-08T03:18:20;27.58;;;13.18;;
66587;SDS011;53446;50.076;8.198;2024-03-08T03:20:23;28.83;;;13.05;;
66587;SDS011;53446;50.076;8.198;2024-03-08T03:22:26;25.80;;;12.27;;
66587;SDS011;53446;50.076;8.198;2024-03-08T03:24:26;25.17;;;12.98;;
66587;SDS011;53446;50.076;8.198;2024-03-08T03:26:29;25.92;;;12.88;;
66587;SDS011;53446;50.076;8.198;2024-03-08T03:28:31;28.38;;;13.55;;
66587;SDS011;53446;50.076;8.198;2024-03-08T03:30:33;28.88;;;14.07;;
66587;SDS011;53446;50.076;8.198;2024-03-08T03:32:33;26.93;;;13.53;;
66587;SDS011;53446;50.076;8.198;2024-03-08T03:34:36;26.30;;;12.77;;
66587;SDS011;53446;50.076;8.198;2024-03-08T03:36:37;28.37;;;13.17;;
66587;SDS011;53446;50.076;8.198;2024-03-08T03:38:38;27.25;;;12.80;;
66587;SDS011;53446;50.076;8.198;2024-03-08T03:40:38;31.33;;;13.57;;
66587;SDS011;53446;50.076;8.198;2024-03-08T03:42:42;26.13;;;12.40;;
66587;SDS011;53446;50.076;8.198;2024-03-08T03:44:46;31.37;;;13.97;;
66587;SDS011;53446;50.076;8.198;2024-03-08T03:46:47;27.88;;;12.43;;
66587;SDS011;53446;50.076;8.198;2024-03-08T03:48:47;25.50;;;13.05;;
66587;SDS011;53446;50.076;8.198;2024-03-08T03:50:47;25.57;;;13.07;;
66587;SDS011;53446;50.076;8.198;2024-03-08T03:52:47;26.17;;;12.67;;
66587;SDS011;53446;50.076;8.198;2024-03-08T03:54:48;25.67;;;12.47;;
66587;SDS011;53446;50.076;8.198;2024-03-08T03:56:49;27.67;;;13.63;;
66587;SDS011;53446;50.076;8.198;2024-03-08T03:58:52;27.02;;;13.70;;
66587;SDS011;53446;50.076;8.198;2024-03-08T04:00:53;27.90;;;12.48;;
66587;SDS011;53446;50.076;8.198;2024-03-08T04:02:53;28.10;;;13.50;;
66587;SDS011;53446;50.076;8.198;2024-03-08T04:04:54;28.25;;;13.48;;
66587;SDS011;53446;50.076;8.198;2024-03-08T04:06:55;28.67;;;13.47;;
66587;SDS011;53446;50.076;8.198;2024-03-08T04:08:55;26.90;;;13.67;;
66587;SDS011;53446;50.076;8.198;2024-03-08T04:10:55;28.93;;;14.03;;
66587;SDS011;53446;50.076;8.198;2024-03-08T04:12:55;25.67;;;13.13;;
66587;SDS011;53446;50.076;8.198;2024-03-08T04:14:56;32.45;;;14.38;;
66587;SDS011;53446;50.076;8.198;2024-03-08T04:16:57;28.40;;;13.50;;
66587;SDS011;53446;50.076;8.198;2024-03-08T04:19:00;30.80;;;14.00;;
66587;SDS011;53446;50.076;8.198;2024-03-08T04:21:07;29.27;;;13.27;;
66587;SDS011;53446;50.076;8.198;2024-03-08T04:23:07;28.77;;;14.10;;
66587;SDS011;53446;50.076;8.198;2024-03-08T04:25:07;26.00;;;13.10;;
66587;SDS011;53446;50.076;8.198;2024-03-08T04:27:09;28.42;;;13.68;;
66587;SDS011;53446;50.076;8.198;2024-03-08T04:29:09;27.43;;;13.47;;
66587;SDS011;53446;50.076;8.198;2024-03-08T04:31:10;27.03;;;13.33;;
66587;SDS011;53446;50.076;8.198;2024-03-08T04:33:10;28.40;;;13.83;;
66587;SDS011;53446;50.076;8.198;2024-03-08T04:35:10;31.87;;;14.57;;
66587;SDS011;53446;50.076;8.198;2024-03-08T04:37:12;30.45;;;13.02;;
66587;SDS011;53446;50.076;8.198;2024-03-08T04:39:14;33.47;;;14.38;;
66587;SDS011;53446;50.076;8.198;2024-03-08T04:41:15;29.40;;;14.77;;
66587;SDS011;53446;50.076;8.198;2024-03-08T04:43:16;33.83;;;14.45;;
66587;SDS011;53446;50.076;8.198;2024-03-08T04:45:18;30.65;;;14.55;;
66587;SDS011;53446;50.076;8.198;2024-03-08T04:47:18;27.20;;;13.93;;
66587;SDS011;53446;50.076;8.198;2024-03-08T04:49:19;27.10;;;14.00;;
66587;SDS011;53446;50.076;8.198;2024-03-08T04:51:21;33.00;;;14.75;;
66587;SDS011;53446;50.076;8.198;2024-03-08T04:53:21;31.20;;;13.73;;
66587;SDS011;53446;50.076;8.198;2024-03-08T04:55:22;29.33;;;14.73;;
66587;SDS011;53446;50.076;8.198;2024-03-08T04:57:22;27.67;;;13.43;;
66587;SDS011;53446;50.076;8.198;2024-03-08T04:59:23;31.73;;;14.63;;
66587;SDS011;53446;50.076;8.198;2024-03-08T05:01:24;28.08;;;13.70;;
66587;SDS011;53446;50.076;8.198;2024-03-08T05:03:24;29.93;;;14.10;;
66587;SDS011;53446;50.076;8.198;2024-03-08T05:05:26;30.58;;;14.63;;
66587;SDS011;53446;50.076;8.198;2024-03-08T05:07:28;31.85;;;14.35;;
66587;SDS011;53446;50.076;8.198;2024-03-08T05:09:29;30.93;;;14.80;;
66587;SDS011;53446;50.076;8.198;2024-03-08T05:11:31;32.47;;;14.57;;
66587;SDS011;53446;50.076;8.198;2024-03-08T05:13:31;31.60;;;13.97;;
66587;SDS011;53446;50.076;8.198;2024-03-08T05:15:32;30.58;;;13.93;;
66587;SDS011;53446;50.076;8.198;2024-03-08T05:17:34;32.03;;;14.90;;
66587;SDS011;53446;50.076;8.198;2024-03-08T05:19:35;31.13;;;14.33;;
66587;SDS011;53446;50.076;8.198;2024-03-08T05:21:36;30.88;;;14.30;;
66587;SDS011;53446;50.076;8.198;2024-03-08T05:23:36;29.23;;;14.00;;
66587;SDS011;53446;50.076;8.198;2024-03-08T05:25:36;34.55;;;14.95;;
66587;SDS011;53446;50.076;8.198;2024-03-08T05:27:37;31.80;;;14.45;;
66587;SDS011;53446;50.076;8.198;2024-03-08T05:29:37;31.83;;;15.70;;
66587;SDS011;53446;50.076;8.198;2024-03-08T05:33:49;31.50;;;14.48;;
66587;SDS011;53446;50.076;8.198;2024-03-08T05:35:50;31.30;;;15.13;;
66587;SDS011;53446;50.076;8.198;2024-03-08T05:37:50;31.98;;;14.95;;
66587;SDS011;53446;50.076;8.198;2024-03-08T05:39:50;28.70;;;14.70;;
66587;SDS011;53446;50.076;8.198;2024-03-08T05:41:50;32.47;;;15.23;;
66587;SDS011;53446;50.076;8.198;2024-03-08T05:43:51;31.90;;;14.90;;
66587;SDS011;53446;50.076;8.198;2024-03-08T05:45:51;29.73;;;14.43;;
66587;SDS011;53446;50.076;8.198;2024-03-08T05:47:52;31.60;;;14.60;;
66587;SDS011;53446;50.076;8.198;2024-03-08T05:49:52;33.30;;;15.63;;
66587;SDS011;53446;50.076;8.198;2024-03-08T05:51:53;34.17;;;15.05;;
66587;SDS011;53446;50.076;8.198;2024-03-08T05:53:54;35.30;;;15.48;;
66587;SDS011;53446;50.076;8.198;2024-03-08T05:55:55;31.70;;;15.00;;
66587;SDS011;53446;50.076;8.198;2024-03-08T05:57:56;33.07;;;16.50;;
66587;SDS011;53446;50.076;8.198;2024-03-08T05:59:56;33.97;;;15.35;;
66587;SDS011;53446;50.076;8.198;2024-03-08T06:01:56;33.53;;;15.83;;
66587;SDS011;53446;50.076;8.198;2024-03-08T06:03:57;31.73;;;14.87;;
66587;SDS011;53446;50.076;8.198;2024-03-08T06:05:58;32.88;;;15.65;;
66587;SDS011;53446;50.076;8.198;2024-03-08T06:07:58;31.40;;;15.40;;
66587;SDS011;53446;50.076;8.198;2024-03-08T06:09:59;30.70;;;13.83;;
66587;SDS011;53446;50.076;8.198;2024-03-08T06:12:00;32.55;;;16.00;;
66587;SDS011;53446;50.076;8.198;2024-03-08T06:14:01;32.88;;;15.35;;
66587;SDS011;53446;50.076;8.198;2024-03-08T06:16:02;33.63;;;15.80;;
66587;SDS011;53446;50.076;8.198;2024-03-08T06:18:05;34.85;;;16.50;;
66587;SDS011;53446;50.076;8.198;2024-03-08T06:20:06;33.77;;;15.40;;
66587;SDS011;53446;50.076;8.198;2024-03-08T06:22:10;31.83;;;15.45;;
66587;SDS011;53446;50.076;8.198;2024-03-08T06:24:10;29.47;;;14.13;;
66587;SDS011;53446;50.076;8.198;2024-03-08T06:26:10;29.67;;;14.00;;
66587;SDS011;53446;50.076;8.198;2024-03-08T06:28:11;32.23;;;14.70;;
66587;SDS011;53446;50.076;8.198;2024-03-08T06:30:11;34.97;;;16.35;;
66587;SDS011;53446;50.076;8.198;2024-03-08T06:32:12;33.85;;;16.35;;
66587;SDS011;53446;50.076;8.198;2024-03-08T06:34:12;34.03;;;16.53;;
66587;SDS011;53446;50.076;8.198;2024-03-08T06:36:12;31.43;;;16.13;;
66587;SDS011;53446;50.076;8.198;2024-03-08T06:38:13;28.98;;;14.73;;
66587;SDS011;53446;50.076;8.198;2024-03-08T06:40:17;32.40;;;15.70;;
66587;SDS011;53446;50.076;8.198;2024-03-08T06:42:17;68.68;;;40.30;;
66587;SDS011;53446;50.076;8.198;2024-03-08T06:44:17;34.37;;;16.30;;
66587;SDS011;53446;50.076;8.198;2024-03-08T06:46:17;31.30;;;15.07;;
66587;SDS011;53446;50.076;8.198;2024-03-08T06:48:18;33.53;;;17.20;;
66587;SDS011;53446;50.076;8.198;2024-03-08T06:50:18;32.93;;;15.93;;
66587;SDS011;53446;50.076;8.198;2024-03-08T06:52:18;35.70;;;16.13;;
66587;SDS011;53446;50.076;8.198;2024-03-08T06:54:19;29.87;;;15.83;;
66587;SDS011;53446;50.076;8.198;2024-03-08T06:56:19;32.60;;;15.50;;
66587;SDS011;53446;50.076;8.198;2024-03-08T06:58:19;30.48;;;15.45;;
66587;SDS011;53446;50.076;8.198;2024-03-08T07:00:20;32.40;;;16.38;;
66587;SDS011;53446;50.076;8.198;2024-03-08T07:02:21;31.70;;;15.87;;
66587;SDS011;53446;50.076;8.198;2024-03-08T07:04:24;30.75;;;15.57;;
66587;SDS011;53446;50.076;8.198;2024-03-08T07:06:26;31.88;;;15.23;;
66587;SDS011;53446;50.076;8.198;2024-03-08T07:08:27;33.17;;;15.03;;
66587;SDS011;53446;50.076;8.198;2024-03-08T07:10:27;33.03;;;16.03;;
66587;SDS011;53446;50.076;8.198;2024-03-08T07:12:28;31.08;;;15.30;;
66587;SDS011;53446;50.076;8.198;2024-03-08T07:14:28;31.90;;;14.73;;
66587;SDS011;53446;50.076;8.198;2024-03-08T07:16:29;33.13;;;15.07;;
66587;SDS011;53446;50.076;8.198;2024-03-08T07:18:29;31.60;;;14.97;;
66587;SDS011;53446;50.076;8.198;2024-03-08T07:20:29;31.60;;;15.98;;
66587;SDS011;53446;50.076;8.198;2024-03-08T07:22:30;30.75;;;15.02;;
66587;SDS011;53446;50.076;8.198;2024-03-08T07:24:31;31.77;;;15.10;;
66587;SDS011;53446;50.076;8.198;2024-03-08T07:26:50;31.35;;;15.70;;
66587;SDS011;53446;50.076;8.198;2024-03-08T07:28:52;29.88;;;14.43;;
66587;SDS011;53446;50.076;8.198;2024-03-08T07:30:54;32.30;;;14.95;;
66587;SDS011;53446;50.076;8.198;2024-03-08T07:33:08;27.83;;;14.40;;
66587;SDS011;53446;50.076;8.198;2024-03-08T07:35:11;27.97;;;13.80;;
66587;SDS011;53446;50.076;8.198;2024-03-08T07:37:12;29.15;;;15.25;;
66587;SDS011;53446;50.076;8.198;2024-03-08T07:39:13;28.00;;;14.55;;
66587;SDS011;53446;50.076;8.198;2024-03-08T07:41:14;30.57;;;15.03;;
66587;SDS011;53446;50.076;8.198;2024-03-08T07:43:15;29.10;;;14.63;;
66587;SDS011;53446;50.076;8.198;2024-03-08T07:45:15;31.23;;;15.57;;
66587;SDS011;53446;50.076;8.198;2024-03-08T07:47:16;28.73;;;14.10;;
66587;SDS011;53446;50.076;8.198;2024-03-08T07:49:18;29.83;;;14.77;;
66587;SDS011;53446;50.076;8.198;2024-03-08T07:51:18;28.97;;;14.83;;
66587;SDS011;53446;50.076;8.198;2024-03-08T07:53:18;28.53;;;14.30;;
66587;SDS011;53446;50.076;8.198;2024-03-08T07:55:19;29.13;;;14.73;;
66587;SDS011;53446;50.076;8.198;2024-03-08T07:57:19;28.53;;;14.40;;
66587;SDS011;53446;50.076;8.198;2024-03-08T07:59:20;26.77;;;14.40;;
66587;SDS011;53446;50.076;8.198;2024-03-08T08:01:21;29.38;;;14.43;;
66587;SDS011;53446;50.076;8.198;2024-03-08T08:03:21;29.57;;;14.30;;
66587;SDS011;53446;50.076;8.198;2024-03-08T08:05:21;30.63;;;14.67;;
66587;SDS011;53446;50.076;8.198;2024-03-08T08:07:22;27.17;;;12.97;;
66587;SDS011;53446;50.076;8.198;2024-03-08T08:09:22;28.60;;;15.35;;
66587;SDS011;53446;50.076;8.198;2024-03-08T08:11:28;25.30;;;13.60;;
66587;SDS011;53446;50.076;8.198;2024-03-08T08:13:32;28.45;;;14.20;;
66587;SDS011;53446;50.076;8.198;2024-03-08T08:15:32;28.42;;;13.55;;
66587;SDS011;53446;50.076;8.198;2024-03-08T08:17:35;26.50;;;13.25;;
66587;SDS011;53446;50.076;8.198;2024-03-08T08:19:36;28.40;;;14.87;;
66587;SDS011;53446;50.076;8.198;2024-03-08T08:21:36;24.98;;;13.57;;
66587;SDS011;53446;50.076;8.198;2024-03-08T08:23:36;25.23;;;13.80;;
66587;SDS011;53446;50.076;8.198;2024-03-08T08:25:37;27.37;;;14.10;;
66587;SDS011;53446;50.076;8.198;2024-03-08T08:27:38;27.73;;;13.73;;
66587;SDS011;53446;50.076;8.198;2024-03-08T08:29:42;27.30;;;13.18;;
66587;SDS011;53446;50.076;8.198;2024-03-08T08:31:43;28.52;;;14.20;;
66587;SDS011;53446;50.076;8.198;2024-03-08T08:33:43;25.77;;;13.53;;
66587;SDS011;53446;50.076;8.198;2024-03-08T08:35:43;25.87;;;13.73;;
66587;SDS011;53446;50.076;8.198;2024-03-08T08:37:44;25.90;;;13.40;;
66587;SDS011;53446;50.076;8.198;2024-03-08T08:39:44;27.67;;;13.25;;
66587;SDS011;53446;50.076;8.198;2024-03-08T08:41:44;26.17;;;13.50;;
66587;SDS011;53446;50.076;8.198;2024-03-08T08:43:44;24.00;;;12.90;;
66587;SDS011;53446;50.076;8.198;2024-03-08T08:45:45;27.57;;;13.70;;
66587;SDS011;53446;50.076;8.198;2024-03-08T08:47:47;27.15;;;12.85;;
66587;SDS011;53446;50.076;8.198;2024-03-08T08:49:48;28.83;;;14.20;;
66587;SDS011;53446;50.076;8.198;2024-03-08T08:51:49;28.43;;;13.87;;
66587;SDS011;53446;50.076;8.198;2024-03-08T08:53:50;29.85;;;13.95;;
66587;SDS011;53446;50.076;8.198;2024-03-08T08:55:50;25.87;;;13.60;;
66587;SDS011;53446;50.076;8.198;2024-03-08T08:57:51;25.77;;;13.53;;
66587;SDS011;53446;50.076;8.198;2024-03-08T08:59:51;25.35;;;13.38;;
66587;SDS011;53446;50.076;8.198;2024-03-08T09:01:52;27.20;;;13.77;;
66587;SDS011;53446;50.076;8.198;2024-03-08T09:03:53;26.52;;;14.15;;
66587;SDS011;53446;50.076;8.198;2024-03-08T09:05:54;26.30;;;13.50;;
66587;SDS011;53446;50.076;8.198;2024-03-08T09:07:54;24.27;;;13.30;;
66587;SDS011;53446;50.076;8.198;2024-03-08T09:09:55;27.02;;;14.45;;
66587;SDS011;53446;50.076;8.198;2024-03-08T09:11:58;28.00;;;13.27;;
66587;SDS011;53446;50.076;8.198;2024-03-08T09:13:58;26.27;;;13.90;;
66587;SDS011;53446;50.076;8.198;2024-03-08T09:15:58;23.67;;;13.87;;
66587;SDS011;53446;50.076;8.198;2024-03-08T09:17:58;24.97;;;13.97;;
66587;SDS011;53446;50.076;8.198;2024-03-08T09:19:59;27.23;;;14.60;;
66587;SDS011;53446;50.076;8.198;2024-03-08T09:21:59;26.08;;;13.70;;
66587;SDS011;53446;50.076;8.198;2024-03-08T09:24:00;26.88;;;14.52;;
66587;SDS011;53446;50.076;8.198;2024-03-08T09:26:00;24.37;;;13.37;;
66587;SDS011;53446;50.076;8.198;2024-03-08T09:28:03;26.90;;;13.43;;
66587;SDS011;53446;50.076;8.198;2024-03-08T09:30:06;26.85;;;14.02;;
66587;SDS011;53446;50.076;8.198;2024-03-08T09:32:07;25.73;;;13.85;;
66587;SDS011;53446;50.076;8.198;2024-03-08T09:34:07;23.93;;;13.87;;
66587;SDS011;53446;50.076;8.198;2024-03-08T09:36:08;25.08;;;14.20;;
66587;SDS011;53446;50.076;8.198;2024-03-08T09:38:08;26.40;;;13.50;;
66587;SDS011;53446;50.076;8.198;2024-03-08T09:40:13;27.57;;;13.60;;
66587;SDS011;53446;50.076;8.198;2024-03-08T09:42:15;24.52;;;13.20;;
66587;SDS011;53446;50.076;8.198;2024-03-08T09:44:16;26.05;;;12.88;;
66587;SDS011;53446;50.076;8.198;2024-03-08T09:46:16;24.13;;;13.23;;
66587;SDS011;53446;50.076;8.198;2024-03-08T09:48:19;26.13;;;13.90;;
66587;SDS011;53446;50.076;8.198;2024-03-08T09:50:20;25.73;;;13.90;;
66587;SDS011;53446;50.076;8.198;2024-03-08T09:52:21;24.33;;;13.48;;
66587;SDS011;53446;50.076;8.198;2024-03-08T09:54:21;25.17;;;12.97;;
66587;SDS011;53446;50.076;8.198;2024-03-08T09:56:24;26.42;;;13.13;;
66587;SDS011;53446;50.076;8.198;2024-03-08T09:58:27;26.85;;;13.45;;
66587;SDS011;53446;50.076;8.198;2024-03-08T10:00:27;25.90;;;12.67;;
66587;SDS011;53446;50.076;8.198;2024-03-08T10:02:28;22.33;;;13.03;;
66587;SDS011;53446;50.076;8.198;2024-03-08T10:04:29;26.48;;;13.45;;
66587;SDS011;53446;50.076;8.198;2024-03-08T10:06:30;27.37;;;13.37;;
66587;SDS011;53446;50.076;8.198;2024-03-08T10:08:33;26.13;;;14.13;;
66587;SDS011;53446;50.076;8.198;2024-03-08T10:10:35;23.75;;;13.60;;
66587;SDS011;53446;50.076;8.198;2024-03-08T10:12:35;24.58;;;13.60;;
66587;SDS011;53446;50.076;8.198;2024-03-08T10:14:38;26.17;;;12.87;;
66587;SDS011;53446;50.076;8.198;2024-03-08T10:16:39;23.27;;;12.18;;
66587;SDS011;53446;50.076;8.198;2024-03-08T10:18:39;23.90;;;12.77;;
66587;SDS011;53446;50.076;8.198;2024-03-08T10:20:40;23.88;;;12.82;;
66587;SDS011;53446;50.076;8.198;2024-03-08T10:22:41;25.80;;;12.93;;
66587;SDS011;53446;50.076;8.198;2024-03-08T10:24:45;24.45;;;13.25;;
66587;SDS011;53446;50.076;8.198;2024-03-08T10:26:46;23.60;;;13.25;;
66587;SDS011;53446;50.076;8.198;2024-03-08T10:28:48;26.77;;;13.88;;
66587;SDS011;53446;50.076;8.198;2024-03-08T10:30:49;24.70;;;13.45;;
66587;SDS011;53446;50.076;8.198;2024-03-08T10:32:49;24.83;;;13.73;;
66587;SDS011;53446;50.076;8.198;2024-03-08T10:34:51;22.70;;;11.88;;
66587;SDS011;53446;50.076;8.198;2024-03-08T10:36:52;20.48;;;11.93;;
66587;SDS011;53446;50.076;8.198;2024-03-08T10:38:53;23.90;;;12.10;;
66587;SDS011;53446;50.076;8.198;2024-03-08T10:40:53;22.70;;;11.23;;
66587;SDS011;53446;50.076;8.198;2024-03-08T10:42:56;19.58;;;11.30;;
66587;SDS011;53446;50.076;8.198;2024-03-08T10:45:02;21.23;;;11.45;;
66587;SDS011;53446;50.076;8.198;2024-03-08T10:47:18;24.40;;;11.33;;
66587;SDS011;53446;50.076;8.198;2024-03-08T10:49:25;22.85;;;11.57;;
66587;SDS011;53446;50.076;8.198;2024-03-08T10:51:27;20.52;;;11.40;;
66587;SDS011;53446;50.076;8.198;2024-03-08T10:53:29;23.02;;;12.35;;
66587;SDS011;53446;50.076;8.198;2024-03-08T10:55:29;21.67;;;12.30;;
66587;SDS011;53446;50.076;8.198;2024-03-08T10:57:36;19.48;;;11.07;;
66587;SDS011;53446;50.076;8.198;2024-03-08T10:59:38;19.10;;;11.05;;
66587;SDS011;53446;50.076;8.198;2024-03-08T11:01:39;19.63;;;10.65;;
66587;SDS011;53446;50.076;8.198;2024-03-08T11:05:40;20.60;;;11.97;;
66587;SDS011;53446;50.076;8.198;2024-03-08T11:07:42;22.52;;;10.95;;
66587;SDS011;53446;50.076;8.198;2024-03-08T11:09:42;18.85;;;10.40;;
66587;SDS011;53446;50.076;8.198;2024-03-08T11:11:45;20.33;;;11.30;;
66587;SDS011;53446;50.076;8.198;2024-03-08T11:13:45;19.83;;;11.33;;
66587;SDS011;53446;50.076;8.198;2024-03-08T11:15:46;20.25;;;11.02;;
66587;SDS011;53446;50.076;8.198;2024-03-08T11:17:48;18.90;;;11.15;;
66587;SDS011;53446;50.076;8.198;2024-03-08T11:19:49;18.70;;;11.18;;
66587;SDS011;53446;50.076;8.198;2024-03-08T11:22:02;18.00;;;10.83;;
66587;SDS011;53446;50.076;8.198;2024-03-08T11:24:06;17.63;;;10.98;;
66587;SDS011;53446;50.076;8.198;2024-03-08T11:26:21;16.95;;;10.77;;
66587;SDS011;53446;50.076;8.198;2024-03-08T11:28:24;20.17;;;10.55;;
66587;SDS011;53446;50.076;8.198;2024-03-08T11:30:24;19.10;;;11.40;;
66587;SDS011;53446;50.076;8.198;2024-03-08T11:32:29;18.02;;;11.40;;
66587;SDS011;53446;50.076;8.198;2024-03-08T11:34:30;18.38;;;11.32;;
66587;SDS011;53446;50.076;8.198;2024-03-08T11:36:30;17.35;;;11.68;;
66587;SDS011;53446;50.076;8.198;2024-03-08T11:38:36;17.65;;;12.15;;
66587;SDS011;53446;50.076;8.198;2024-03-08T11:40:41;18.87;;;12.10;;
66587;SDS011;53446;50.076;8.198;2024-03-08T11:42:45;17.88;;;12.13;;
66587;SDS011;53446;50.076;8.198;2024-03-08T11:44:50;18.02;;;12.50;;
66587;SDS011;53446;50.076;8.198;2024-03-08T11:46:50;17.27;;;12.20;;
66587;SDS011;53446;50.076;8.198;2024-03-08T11:48:53;18.40;;;12.97;;
66587;SDS011;53446;50.076;8.198;2024-03-08T11:51:01;17.10;;;12.38;;
66587;SDS011;53446;50.076;8.198;2024-03-08T11:53:03;17.63;;;12.63;;
66587;SDS011;53446;50.076;8.198;2024-03-08T11:55:04;18.10;;;12.80;;